Time;durP1;ratioP1;P1;durP2;ratioP2;P2;SDS_P1;SDS_P2;PMS_P1;PMS_P2;Temp;Humidity;BMP_temperature;BMP_pressure;BME280_temperature;BME280_humidity;BME280_pressure;Samples;Min_cycle;Max_cycle;Signal;HPM_P1;HPM_P2
2022/03/07 00:00:00;;;;;;;11.98;8.18;;;;;;;;;;5013634;28;20030;-79
2022/03/07 00:02:26;;;;;;;11.85;7.55;;;;;;;;;;5010722;28;20450;-82
2022/03/07 00:04:52;;;;;;;12.00;7.97;;;;;;;;;;4996008;28;20030;-82
2022/03/07 00:07:18;;;;;;;12.43;8.05;;;;;;;;;;4995908;28;20022;-81
2022/03/07 00:09:44;;;;;;;15.90;7.28;;;;;;;;;;4996289;28;20045;-81
2022/03/07 00:12:10;;;;;;;9.02;7.03;;;;;;;;;;4996500;28;20034;-83
2022/03/07 00:14:36;;;;;;;11.65;7.30;;;;;;;;;;5015124;28;20037;-81
2022/03/07 00:17:02;;;;;;;11.60;7.88;;;;;;;;;;5015341;28;20022;-82
2022/03/07 00:19:29;;;;;;;13.68;7.82;;;;;;;;;;5016985;28;20100;-81
2022/03/07 00:21:55;;;;;;;11.25;7.47;;;;;;;;;;5011167;28;20061;-82
2022/03/07 00:24:21;;;;;;;11.60;7.47;;;;;;;;;;5022025;28;20030;-83
2022/03/07 00:26:47;;;;;;;11.27;7.43;;;;;;;;;;5017071;28;20485;-84
2022/03/07 00:29:13;;;;;;;12.65;7.28;;;;;;;;;;5017295;28;20033;-81
2022/03/07 00:31:39;;;;;;;10.38;7.13;;;;;;;;;;5015502;28;20022;-81
2022/03/07 00:34:05;;;;;;;11.18;7.78;;;;;;;;;;5017263;28;20075;-81
2022/03/07 00:36:31;;;;;;;12.95;8.00;;;;;;;;;;5035230;23;20049;-81
2022/03/07 00:38:57;;;;;;;13.68;7.75;;;;;;;;;;5038141;28;20033;-81
2022/03/07 00:41:23;;;;;;;11.93;7.80;;;;;;;;;;5040992;28;20026;-81
2022/03/07 00:43:49;;;;;;;13.20;8.60;;;;;;;;;;5031141;28;20037;-83
2022/03/07 00:46:16;;;;;;;10.63;7.45;;;;;;;;;;5028556;28;20075;-83
2022/03/07 00:48:41;;;;;;;10.95;7.07;;;;;;;;;;5020304;28;20030;-82
2022/03/07 00:51:08;;;;;;;12.15;7.38;;;;;;;;;;5018897;28;20030;-82
2022/03/07 00:53:34;;;;;;;12.35;7.20;;;;;;;;;;5018344;28;20482;-82
2022/03/07 00:56:00;;;;;;;13.02;7.18;;;;;;;;;;5015356;28;20030;-82
2022/03/07 00:58:26;;;;;;;10.63;7.50;;;;;;;;;;5019414;28;20468;-82
2022/03/07 01:00:52;;;;;;;13.65;7.95;;;;;;;;;;5030139;28;20026;-81
2022/03/07 01:03:18;;;;;;;17.45;8.55;;;;;;;;;;5032758;28;20048;-82
2022/03/07 01:05:45;;;;;;;11.77;7.60;;;;;;;;;;5033876;28;20049;-82
2022/03/07 01:08:11;;;;;;;14.48;8.23;;;;;;;;;;5033482;28;20018;-84
2022/03/07 01:10:38;;;;;;;14.10;7.95;;;;;;;;;;5025091;28;20081;-82
2022/03/07 01:13:04;;;;;;;13.50;8.70;;;;;;;;;;5023732;28;20466;-82
2022/03/07 01:15:31;;;;;;;15.60;8.25;;;;;;;;;;5022054;28;20046;-81
2022/03/07 01:17:59;;;;;;;13.98;8.35;;;;;;;;;;5021652;28;20404;-82
2022/03/07 01:20:26;;;;;;;15.68;8.90;;;;;;;;;;5020739;28;20029;-82
2022/03/07 01:22:52;;;;;;;14.18;8.00;;;;;;;;;;5022354;28;20030;-82
2022/03/07 01:25:18;;;;;;;16.48;8.43;;;;;;;;;;5021275;28;20045;-80
2022/03/07 01:27:44;;;;;;;13.70;8.00;;;;;;;;;;5022356;28;20030;-82
2022/03/07 01:30:10;;;;;;;18.15;8.98;;;;;;;;;;5022735;28;20038;-82
2022/03/07 01:32:36;;;;;;;20.95;9.02;;;;;;;;;;5020277;28;20034;-83
2022/03/07 01:35:02;;;;;;;16.45;9.27;;;;;;;;;;5019241;28;20493;-82
2022/03/07 01:37:28;;;;;;;11.98;8.85;;;;;;;;;;5019543;28;20153;-82
2022/03/07 01:39:54;;;;;;;17.15;9.52;;;;;;;;;;5019414;28;20057;-83
2022/03/07 01:42:20;;;;;;;16.48;9.55;;;;;;;;;;5019833;28;20077;-82
2022/03/07 01:44:46;;;;;;;14.07;8.75;;;;;;;;;;5018930;28;20133;-82
2022/03/07 01:47:12;;;;;;;15.85;8.98;;;;;;;;;;5019826;28;20030;-83
2022/03/07 01:49:38;;;;;;;16.83;9.88;;;;;;;;;;5020241;28;20026;-83
2022/03/07 01:52:04;;;;;;;16.40;9.55;;;;;;;;;;5019394;28;20053;-82
2022/03/07 01:54:30;;;;;;;19.25;9.95;;;;;;;;;;5034889;28;20037;-81
2022/03/07 01:56:57;;;;;;;15.82;9.88;;;;;;;;;;4999925;28;20026;-82
2022/03/07 01:59:27;;;;;;;20.30;10.20;;;;;;;;;;5013618;28;20485;-83
2022/03/07 02:01:54;;;;;;;14.07;9.23;;;;;;;;;;5026042;28;20022;-81
2022/03/07 02:04:20;;;;;;;13.70;8.93;;;;;;;;;;5026076;28;20030;-81
2022/03/07 02:06:46;;;;;;;17.90;10.60;;;;;;;;;;5018723;28;20022;-81
2022/03/07 02:09:13;;;;;;;17.10;10.15;;;;;;;;;;5018577;28;20021;-83
2022/03/07 02:11:39;;;;;;;18.00;10.20;;;;;;;;;;5018677;28;20049;-82
2022/03/07 02:14:12;;;;;;;16.92;9.52;;;;;;;;;;5019697;28;20094;-81
2022/03/07 02:16:38;;;;;;;16.02;9.30;;;;;;;;;;5019340;28;20021;-81
2022/03/07 02:19:04;;;;;;;13.77;8.98;;;;;;;;;;5034125;28;20112;-81
2022/03/07 02:21:32;;;;;;;15.18;10.18;;;;;;;;;;5019548;28;20037;-81
2022/03/07 02:23:58;;;;;;;18.60;9.52;;;;;;;;;;5018576;28;20094;-82
2022/03/07 02:26:24;;;;;;;20.13;10.18;;;;;;;;;;5030619;28;20109;-81
2022/03/07 02:28:50;;;;;;;19.45;10.25;;;;;;;;;;4998943;28;20526;-81
2022/03/07 02:31:18;;;;;;;17.40;10.52;;;;;;;;;;5003147;28;20030;-81
2022/03/07 02:33:44;;;;;;;18.83;10.02;;;;;;;;;;4998742;28;20034;-81
2022/03/07 02:36:10;;;;;;;20.40;9.93;;;;;;;;;;4998502;28;20042;-81
2022/03/07 02:38:36;;;;;;;16.23;9.63;;;;;;;;;;4998978;28;20041;-81
2022/03/07 02:41:02;;;;;;;18.45;11.15;;;;;;;;;;4998007;28;20097;-81
2022/03/07 02:43:28;;;;;;;17.75;10.55;;;;;;;;;;4998416;28;20027;-81
2022/03/07 02:45:55;;;;;;;18.85;9.93;;;;;;;;;;5012279;28;20620;-81
2022/03/07 02:48:22;;;;;;;16.27;9.35;;;;;;;;;;5014569;28;20052;-80
2022/03/07 02:50:48;;;;;;;20.70;10.88;;;;;;;;;;5016906;28;20053;-81
2022/03/07 02:53:14;;;;;;;17.42;10.40;;;;;;;;;;5017315;28;20030;-81
2022/03/07 02:55:40;;;;;;;17.35;9.50;;;;;;;;;;5017756;28;20030;-81
2022/03/07 02:58:06;;;;;;;16.85;9.55;;;;;;;;;;5015936;28;20022;-81
2022/03/07 03:00:32;;;;;;;19.95;9.63;;;;;;;;;;5016791;28;20049;-81
2022/03/07 03:02:58;;;;;;;18.80;10.43;;;;;;;;;;5017442;28;20080;-82
2022/03/07 03:05:25;;;;;;;23.42;9.93;;;;;;;;;;5016993;28;20109;-81
2022/03/07 03:07:51;;;;;;;20.75;11.02;;;;;;;;;;5014628;28;20022;-81
2022/03/07 03:10:17;;;;;;;16.17;10.23;;;;;;;;;;5016123;28;20029;-81
2022/03/07 03:12:44;;;;;;;16.85;9.57;;;;;;;;;;5016494;28;20034;-81
2022/03/07 03:15:10;;;;;;;18.13;10.52;;;;;;;;;;5016934;28;20486;-81
2022/03/07 03:17:39;;;;;;;18.25;9.55;;;;;;;;;;5004768;28;20029;-81
2022/03/07 03:20:05;;;;;;;16.38;9.68;;;;;;;;;;4995008;28;20030;-81
2022/03/07 03:22:32;;;;;;;16.40;9.43;;;;;;;;;;5001464;28;20050;-81
2022/03/07 03:24:58;;;;;;;19.67;10.20;;;;;;;;;;5018971;28;20033;-81
2022/03/07 03:27:24;;;;;;;17.10;9.80;;;;;;;;;;5015526;28;20040;-81
2022/03/07 03:29:50;;;;;;;19.33;10.32;;;;;;;;;;5000205;28;20030;-81
2022/03/07 03:32:16;;;;;;;17.42;9.30;;;;;;;;;;5011517;28;20029;-82
2022/03/07 03:34:42;;;;;;;16.38;9.50;;;;;;;;;;5002233;28;20033;-80
2022/03/07 03:37:08;;;;;;;19.80;9.90;;;;;;;;;;5002875;28;20119;-80
2022/03/07 03:39:34;;;;;;;19.75;9.93;;;;;;;;;;5018029;28;20082;-80
2022/03/07 03:42:00;;;;;;;19.27;10.18;;;;;;;;;;5021852;28;20030;-81
2022/03/07 03:44:26;;;;;;;20.48;9.00;;;;;;;;;;5020230;28;20026;-81
2022/03/07 03:46:52;;;;;;;18.05;9.02;;;;;;;;;;5021381;28;20033;-81
2022/03/07 03:49:18;;;;;;;19.50;9.38;;;;;;;;;;5021227;28;20099;-81
2022/03/07 03:51:44;;;;;;;16.55;8.77;;;;;;;;;;5020826;28;20041;-81
2022/03/07 03:54:10;;;;;;;18.15;9.30;;;;;;;;;;5020516;28;20026;-81
2022/03/07 03:56:37;;;;;;;19.08;9.88;;;;;;;;;;5020264;28;20030;-81
2022/03/07 03:59:03;;;;;;;22.60;10.30;;;;;;;;;;5020827;28;20036;-81
2022/03/07 04:01:29;;;;;;;15.52;9.18;;;;;;;;;;5020111;28;20025;-82
2022/03/07 04:03:55;;;;;;;16.05;8.80;;;;;;;;;;5021005;28;20026;-82
2022/03/07 04:06:21;;;;;;;19.02;10.02;;;;;;;;;;5022893;28;20034;-82
2022/03/07 04:08:56;;;;;;;17.10;9.18;;;;;;;;;;5023506;28;20105;-82
2022/03/07 04:11:22;;;;;;;13.38;8.35;;;;;;;;;;5023265;28;20038;-84
2022/03/07 04:13:48;;;;;;;16.73;8.60;;;;;;;;;;5023772;28;20118;-82
2022/03/07 04:16:15;;;;;;;15.57;8.52;;;;;;;;;;5023963;28;20473;-82
2022/03/07 04:18:41;;;;;;;18.17;9.23;;;;;;;;;;5038632;28;20033;-83
2022/03/07 04:21:07;;;;;;;13.25;8.27;;;;;;;;;;5023105;28;20030;-82
2022/03/07 04:23:33;;;;;;;16.55;8.88;;;;;;;;;;5020710;28;20119;-83
2022/03/07 04:25:59;;;;;;;18.85;9.10;;;;;;;;;;5023740;28;20034;-81
2022/03/07 04:28:25;;;;;;;13.88;8.38;;;;;;;;;;5021925;28;20117;-81
2022/03/07 04:30:51;;;;;;;15.52;8.70;;;;;;;;;;5022407;28;20083;-82
2022/03/07 04:33:17;;;;;;;19.20;9.20;;;;;;;;;;5020124;28;20037;-83
2022/03/07 04:35:43;;;;;;;16.50;8.25;;;;;;;;;;5023010;28;20041;-82
2022/03/07 04:38:09;;;;;;;14.13;8.55;;;;;;;;;;5022818;28;20474;-83
2022/03/07 04:40:35;;;;;;;14.40;8.57;;;;;;;;;;5022773;28;20030;-81
2022/03/07 04:43:01;;;;;;;14.77;8.55;;;;;;;;;;5022791;28;20022;-82
2022/03/07 04:45:27;;;;;;;14.77;7.85;;;;;;;;;;5022812;28;20104;-81
2022/03/07 04:47:53;;;;;;;12.45;7.75;;;;;;;;;;5019029;28;20030;-81
2022/03/07 04:50:19;;;;;;;18.55;8.40;;;;;;;;;;5017865;28;20052;-81
2022/03/07 04:52:45;;;;;;;13.30;7.85;;;;;;;;;;5020531;28;20018;-81
2022/03/07 04:55:12;;;;;;;13.18;8.05;;;;;;;;;;5033030;28;20090;-80
2022/03/07 04:57:38;;;;;;;16.65;8.48;;;;;;;;;;5020789;28;20033;-82
2022/03/07 05:00:07;;;;;;;11.13;7.13;;;;;;;;;;5017537;28;20018;-81
2022/03/07 05:02:33;;;;;;;16.88;7.63;;;;;;;;;;5019073;28;20051;-82
2022/03/07 05:04:59;;;;;;;11.50;6.82;;;;;;;;;;5020141;28;20360;-82
2022/03/07 05:07:25;;;;;;;13.80;7.72;;;;;;;;;;5018255;28;20117;-81
2022/03/07 05:09:51;;;;;;;11.85;7.20;;;;;;;;;;5018033;28;20038;-81
2022/03/07 05:12:17;;;;;;;15.40;7.30;;;;;;;;;;5015825;28;20409;-80
2022/03/07 05:14:52;;;;;;;11.85;6.28;;;;;;;;;;5012889;28;20026;-82
2022/03/07 05:19:57;;;;;;;14.70;6.90;;;;;;;;;;5096427;22;20054;-83
2022/03/07 05:22:24;;;;;;;14.43;6.78;;;;;;;;;;5015443;28;20083;-83
2022/03/07 05:24:51;;;;;;;11.93;6.72;;;;;;;;;;5018954;28;20026;-85
2022/03/07 05:27:17;;;;;;;8.13;6.20;;;;;;;;;;5018571;28;20018;-84
2022/03/07 05:29:43;;;;;;;12.48;6.45;;;;;;;;;;5030990;28;20017;-83
2022/03/07 05:32:09;;;;;;;11.15;6.75;;;;;;;;;;5035732;28;20010;-83
2022/03/07 05:34:35;;;;;;;9.07;6.63;;;;;;;;;;5030960;28;20026;-84
2022/03/07 05:37:01;;;;;;;10.35;6.22;;;;;;;;;;5015641;28;20433;-83
2022/03/07 05:39:27;;;;;;;8.88;6.13;;;;;;;;;;5031451;28;20021;-83
2022/03/07 05:41:52;;;;;;;10.00;6.35;;;;;;;;;;5016690;28;20042;-83
2022/03/07 05:44:18;;;;;;;10.55;6.30;;;;;;;;;;5018724;28;20057;-84
2022/03/07 05:46:44;;;;;;;10.63;6.68;;;;;;;;;;5019565;28;20473;-83
2022/03/07 05:49:10;;;;;;;8.93;5.55;;;;;;;;;;5020676;28;20037;-83
2022/03/07 05:51:36;;;;;;;10.07;6.47;;;;;;;;;;5036562;28;20095;-82
2022/03/07 05:54:02;;;;;;;12.20;6.57;;;;;;;;;;5021529;28;20022;-83
2022/03/07 05:56:28;;;;;;;9.20;6.00;;;;;;;;;;5034613;28;20029;-83
2022/03/07 05:58:54;;;;;;;10.00;5.97;;;;;;;;;;5019164;28;20029;-81
2022/03/07 06:01:20;;;;;;;9.52;6.07;;;;;;;;;;5018206;28;20496;-83
2022/03/07 06:03:46;;;;;;;10.15;6.03;;;;;;;;;;5020090;28;20030;-83
2022/03/07 06:06:13;;;;;;;8.93;6.45;;;;;;;;;;5019568;28;20060;-85
2022/03/07 06:08:39;;;;;;;9.63;6.47;;;;;;;;;;5019465;28;20051;-84
2022/03/07 06:11:05;;;;;;;14.32;6.60;;;;;;;;;;5020685;28;20033;-84
2022/03/07 06:13:31;;;;;;;9.15;5.75;;;;;;;;;;5019489;28;20064;-84
2022/03/07 06:15:57;;;;;;;14.65;6.72;;;;;;;;;;5018206;28;20071;-84
2022/03/07 06:18:23;;;;;;;11.25;6.55;;;;;;;;;;5019230;28;20045;-82
2022/03/07 06:20:49;;;;;;;13.02;6.20;;;;;;;;;;5017086;28;20037;-82
2022/03/07 06:23:15;;;;;;;8.65;5.95;;;;;;;;;;5033073;28;20029;-83
2022/03/07 06:25:41;;;;;;;7.93;5.80;;;;;;;;;;5015974;28;20056;-83
2022/03/07 06:28:07;;;;;;;12.95;5.97;;;;;;;;;;5017672;28;20021;-83
2022/03/07 06:30:33;;;;;;;9.30;6.03;;;;;;;;;;5015928;28;20026;-79
2022/03/07 06:32:59;;;;;;;13.65;6.45;;;;;;;;;;5019025;28;20351;-82
2022/03/07 06:35:25;;;;;;;14.30;5.50;;;;;;;;;;5020624;28;20029;-84
2022/03/07 06:37:52;;;;;;;9.30;6.30;;;;;;;;;;5054380;23;20061;-85
2022/03/07 06:40:19;;;;;;;9.13;6.25;;;;;;;;;;5054025;28;20040;-84
2022/03/07 06:42:46;;;;;;;11.15;6.15;;;;;;;;;;5056023;28;20497;-83
2022/03/07 06:45:12;;;;;;;9.48;5.82;;;;;;;;;;5054472;28;20037;-83
2022/03/07 06:47:39;;;;;;;9.02;5.97;;;;;;;;;;5055650;28;20103;-85
2022/03/07 06:50:06;;;;;;;13.57;5.93;;;;;;;;;;5054651;28;20059;-83
2022/03/07 06:52:32;;;;;;;9.85;5.70;;;;;;;;;;5056926;28;20021;-84
2022/03/07 06:54:58;;;;;;;9.80;5.40;;;;;;;;;;5052595;28;20045;-84
2022/03/07 06:57:24;;;;;;;9.02;5.30;;;;;;;;;;5043178;28;20083;-84
2022/03/07 06:59:50;;;;;;;10.20;5.88;;;;;;;;;;5042189;28;20041;-84
2022/03/07 07:02:16;;;;;;;9.55;5.90;;;;;;;;;;5041687;28;20130;-83
2022/03/07 07:04:43;;;;;;;8.07;5.78;;;;;;;;;;5042706;28;20539;-86
2022/03/07 07:07:09;;;;;;;8.75;5.13;;;;;;;;;;5040643;28;20387;-83
2022/03/07 07:09:36;;;;;;;9.35;5.72;;;;;;;;;;5057005;28;20029;-83
2022/03/07 07:12:02;;;;;;;9.40;5.88;;;;;;;;;;5059317;28;20021;-83
2022/03/07 07:14:28;;;;;;;9.05;5.97;;;;;;;;;;5060986;28;20031;-85
2022/03/07 07:16:54;;;;;;;7.93;5.70;;;;;;;;;;5054342;28;20079;-84
2022/03/07 07:19:20;;;;;;;9.15;5.57;;;;;;;;;;5041508;28;20087;-84
2022/03/07 07:21:46;;;;;;;8.18;5.85;;;;;;;;;;5042198;28;20112;-84
2022/03/07 07:24:12;;;;;;;9.00;6.03;;;;;;;;;;5040678;28;20048;-84
2022/03/07 07:26:38;;;;;;;8.68;5.75;;;;;;;;;;5042020;28;20037;-85
2022/03/07 07:29:06;;;;;;;8.43;5.90;;;;;;;;;;5040541;28;20051;-84
2022/03/07 07:31:32;;;;;;;8.90;5.80;;;;;;;;;;5042807;28;20025;-82
2022/03/07 07:33:58;;;;;;;10.50;6.25;;;;;;;;;;5041329;28;20049;-83
2022/03/07 07:36:24;;;;;;;8.82;5.70;;;;;;;;;;5041214;28;20032;-84
2022/03/07 07:38:50;;;;;;;11.55;5.72;;;;;;;;;;5038987;28;20342;-85
2022/03/07 07:41:16;;;;;;;9.57;5.50;;;;;;;;;;5047915;28;20071;-82
2022/03/07 07:43:42;;;;;;;8.95;6.28;;;;;;;;;;5060773;28;20032;-83
2022/03/07 07:46:08;;;;;;;9.85;6.03;;;;;;;;;;5057585;28;20025;-84
2022/03/07 07:48:34;;;;;;;12.35;6.35;;;;;;;;;;5047984;28;20025;-87
2022/03/07 07:51:00;;;;;;;8.02;6.00;;;;;;;;;;5057722;28;20068;-84
2022/03/07 07:53:26;;;;;;;10.80;6.15;;;;;;;;;;5055886;28;20051;-83
2022/03/07 07:55:52;;;;;;;10.90;5.57;;;;;;;;;;5040958;28;20037;-85
2022/03/07 07:58:18;;;;;;;10.50;6.82;;;;;;;;;;5038854;28;20025;-83
2022/03/07 08:00:44;;;;;;;8.40;5.65;;;;;;;;;;5042452;28;20021;-82
2022/03/07 08:03:10;;;;;;;9.75;6.38;;;;;;;;;;5041432;28;20102;-82
2022/03/07 08:05:36;;;;;;;7.70;5.22;;;;;;;;;;5041376;28;20107;-83
2022/03/07 08:08:02;;;;;;;9.27;5.88;;;;;;;;;;5041046;28;20080;-83
2022/03/07 08:10:28;;;;;;;9.40;6.18;;;;;;;;;;5040324;28;20040;-84
2022/03/07 08:12:54;;;;;;;11.18;6.10;;;;;;;;;;5041320;28;20025;-83
2022/03/07 08:15:20;;;;;;;9.32;5.60;;;;;;;;;;5040261;28;20099;-83
2022/03/07 08:17:50;;;;;;;9.57;6.03;;;;;;;;;;5040704;28;20035;-85
2022/03/07 08:20:19;;;;;;;10.35;6.13;;;;;;;;;;5040717;28;20089;-83
2022/03/07 08:22:45;;;;;;;10.52;5.60;;;;;;;;;;5045753;28;20025;-84
2022/03/07 08:25:12;;;;;;;9.77;6.30;;;;;;;;;;5059036;28;20033;-84
2022/03/07 08:27:38;;;;;;;9.63;6.40;;;;;;;;;;5060566;28;20035;-81
2022/03/07 08:30:07;;;;;;;13.32;6.90;;;;;;;;;;5058456;28;20021;-85
2022/03/07 08:32:33;;;;;;;11.85;6.50;;;;;;;;;;5060357;28;20021;-83
2022/03/07 08:34:59;;;;;;;10.13;6.75;;;;;;;;;;5060365;28;20031;-83
2022/03/07 08:37:25;;;;;;;16.83;6.97;;;;;;;;;;5058742;28;20396;-83
2022/03/07 08:39:51;;;;;;;9.90;6.15;;;;;;;;;;5060563;28;20024;-85
2022/03/07 08:42:17;;;;;;;8.45;5.88;;;;;;;;;;5058974;28;20083;-83
2022/03/07 08:44:43;;;;;;;10.73;5.65;;;;;;;;;;5039923;28;20039;-84
2022/03/07 08:47:09;;;;;;;11.48;6.32;;;;;;;;;;5049991;28;20028;-85
2022/03/07 08:49:35;;;;;;;8.50;6.10;;;;;;;;;;5058060;28;20036;-84
2022/03/07 08:52:01;;;;;;;11.27;6.18;;;;;;;;;;5058843;28;20025;-84
2022/03/07 08:54:27;;;;;;;10.55;6.28;;;;;;;;;;5059837;28;20025;-84
2022/03/07 08:56:53;;;;;;;10.13;6.45;;;;;;;;;;5057779;28;20115;-84
2022/03/07 08:59:19;;;;;;;10.52;5.97;;;;;;;;;;5048337;28;20057;-84
2022/03/07 09:01:45;;;;;;;10.18;6.00;;;;;;;;;;5038720;28;20055;-82
2022/03/07 09:04:11;;;;;;;8.82;5.80;;;;;;;;;;5039924;28;20029;-85
2022/03/07 09:06:37;;;;;;;9.18;5.93;;;;;;;;;;5038076;28;20026;-83
2022/03/07 09:09:03;;;;;;;8.48;5.80;;;;;;;;;;5039356;28;20555;-82
2022/03/07 09:11:29;;;;;;;8.98;6.40;;;;;;;;;;5041671;28;20022;-84
2022/03/07 09:13:55;;;;;;;9.80;6.40;;;;;;;;;;5036430;28;20139;-82
2022/03/07 09:16:21;;;;;;;9.48;6.13;;;;;;;;;;5036092;28;20025;-82
2022/03/07 09:18:47;;;;;;;9.70;6.60;;;;;;;;;;5035031;28;20035;-82
2022/03/07 09:21:13;;;;;;;7.22;5.07;;;;;;;;;;5036708;28;20025;-82
2022/03/07 09:23:39;;;;;;;8.85;6.57;;;;;;;;;;5050168;28;20059;-83
2022/03/07 09:26:06;;;;;;;10.90;6.68;;;;;;;;;;5057336;28;20029;-83
2022/03/07 09:28:33;;;;;;;8.57;5.95;;;;;;;;;;5054431;28;20055;-81
2022/03/07 09:30:59;;;;;;;10.13;6.60;;;;;;;;;;5055302;28;20029;-81
2022/03/07 09:33:25;;;;;;;9.90;6.43;;;;;;;;;;5056864;28;20508;-81
2022/03/07 09:35:52;;;;;;;8.18;6.43;;;;;;;;;;5052160;28;20033;-83
2022/03/07 09:38:18;;;;;;;11.45;7.15;;;;;;;;;;5053093;28;20036;-82
2022/03/07 09:40:44;;;;;;;9.30;6.63;;;;;;;;;;5047480;28;20444;-81
2022/03/07 09:43:10;;;;;;;10.05;6.85;;;;;;;;;;5036802;28;20026;-84
2022/03/07 09:45:36;;;;;;;10.68;6.35;;;;;;;;;;5037249;28;20049;-84
2022/03/07 09:48:02;;;;;;;12.30;6.45;;;;;;;;;;5057523;28;20021;-83
2022/03/07 09:50:28;;;;;;;10.00;6.38;;;;;;;;;;5059300;28;20032;-83
2022/03/07 09:52:55;;;;;;;9.68;6.40;;;;;;;;;;5061932;28;20084;-83
2022/03/07 09:55:21;;;;;;;10.55;6.35;;;;;;;;;;5057429;28;20059;-83
2022/03/07 09:57:48;;;;;;;8.68;6.20;;;;;;;;;;5046406;28;20018;-84
2022/03/07 10:00:15;;;;;;;11.25;7.15;;;;;;;;;;5048514;28;20085;-83
2022/03/07 10:02:41;;;;;;;8.65;7.03;;;;;;;;;;5048670;28;20052;-82
2022/03/07 10:05:07;;;;;;;12.82;7.15;;;;;;;;;;5044783;28;20559;-83
2022/03/07 10:07:43;;;;;;;8.63;6.60;;;;;;;;;;5037281;28;20091;-84
2022/03/07 10:10:09;;;;;;;8.98;6.32;;;;;;;;;;5046591;28;20021;-84
2022/03/07 10:12:44;;;;;;;7.97;6.65;;;;;;;;;;5047267;28;20028;-83
2022/03/07 10:15:14;;;;;;;11.43;7.07;;;;;;;;;;5058932;28;20025;-84
2022/03/07 10:17:41;;;;;;;13.45;6.95;;;;;;;;;;5046381;28;20409;-85
2022/03/07 10:20:08;;;;;;;9.70;6.97;;;;;;;;;;5039971;28;20080;-84
2022/03/07 10:22:34;;;;;;;12.50;7.30;;;;;;;;;;5041823;28;20035;-84
2022/03/07 10:25:00;;;;;;;8.82;6.65;;;;;;;;;;5050123;28;20025;-83
2022/03/07 10:27:27;;;;;;;13.95;7.13;;;;;;;;;;5051589;28;20051;-82
2022/03/07 10:29:53;;;;;;;9.00;7.07;;;;;;;;;;5057114;28;20427;-83
2022/03/07 10:32:19;;;;;;;9.25;6.80;;;;;;;;;;5051985;28;20059;-82
2022/03/07 10:34:45;;;;;;;10.20;7.43;;;;;;;;;;5038425;28;20417;-85
2022/03/07 10:37:12;;;;;;;9.93;7.28;;;;;;;;;;5040197;28;20025;-85
2022/03/07 10:39:38;;;;;;;9.40;7.10;;;;;;;;;;5036583;28;20465;-85
2022/03/07 10:42:04;;;;;;;9.02;7.00;;;;;;;;;;5036964;28;20073;-84
2022/03/07 10:44:32;;;;;;;9.05;6.68;;;;;;;;;;5035896;28;20025;-85
2022/03/07 10:47:07;;;;;;;9.20;7.25;;;;;;;;;;5034104;28;20030;-85
2022/03/07 10:49:33;;;;;;;7.85;6.43;;;;;;;;;;5037113;28;20668;-85
2022/03/07 10:52:01;;;;;;;10.18;7.80;;;;;;;;;;5035965;28;20021;-85
2022/03/07 10:54:27;;;;;;;10.57;7.78;;;;;;;;;;5036613;28;20490;-85
2022/03/07 10:56:54;;;;;;;8.23;6.78;;;;;;;;;;5038086;28;20045;-85
2022/03/07 10:59:30;;;;;;;11.05;7.15;;;;;;;;;;5037912;28;20022;-86
2022/03/07 11:02:10;;;;;;;12.75;7.32;;;;;;;;;;5037452;28;20362;-84
2022/03/07 11:04:39;;;;;;;13.10;8.20;;;;;;;;;;5039626;28;20043;-84
2022/03/07 11:07:06;;;;;;;9.80;7.35;;;;;;;;;;5037508;28;20103;-85
2022/03/07 11:09:32;;;;;;;11.07;7.60;;;;;;;;;;5037636;28;20030;-85
2022/03/07 11:11:58;;;;;;;10.63;7.30;;;;;;;;;;5035986;28;20125;-84
2022/03/07 11:14:27;;;;;;;10.65;7.65;;;;;;;;;;5037818;28;20017;-85
2022/03/07 11:16:56;;;;;;;13.02;6.97;;;;;;;;;;5042756;28;20029;-84
2022/03/07 11:19:23;;;;;;;10.88;7.28;;;;;;;;;;5055499;28;20113;-86
2022/03/07 11:21:51;;;;;;;10.30;7.50;;;;;;;;;;5055078;28;20021;-84
2022/03/07 11:24:20;;;;;;;11.02;7.35;;;;;;;;;;5039705;28;20049;-85
2022/03/07 11:26:47;;;;;;;10.55;7.20;;;;;;;;;;5036535;28;20021;-86
2022/03/07 11:29:13;;;;;;;10.70;7.65;;;;;;;;;;5036811;28;20041;-86
2022/03/07 11:31:39;;;;;;;10.18;7.30;;;;;;;;;;5037227;28;20021;-87
2022/03/07 11:34:07;;;;;;;10.15;7.72;;;;;;;;;;5039586;28;20032;-87
2022/03/07 11:36:36;;;;;;;10.93;7.50;;;;;;;;;;5038766;28;20117;-84
2022/03/07 11:39:03;;;;;;;13.15;7.68;;;;;;;;;;5033234;28;20037;-85
2022/03/07 11:41:31;;;;;;;9.93;7.80;;;;;;;;;;5034061;28;20036;-83
2022/03/07 11:44:00;;;;;;;11.63;7.63;;;;;;;;;;5038613;28;20032;-82
2022/03/07 11:46:29;;;;;;;10.38;7.22;;;;;;;;;;5041937;28;20358;-83
2022/03/07 11:48:55;;;;;;;14.65;8.35;;;;;;;;;;5058129;28;20484;-85
2022/03/07 11:51:22;;;;;;;14.50;8.55;;;;;;;;;;5057058;28;20064;-84
2022/03/07 11:53:49;;;;;;;11.27;7.95;;;;;;;;;;5058693;28;20029;-83
2022/03/07 11:56:19;;;;;;;12.98;8.35;;;;;;;;;;5060490;28;20025;-85
2022/03/07 11:58:48;;;;;;;11.75;7.75;;;;;;;;;;5059047;28;20465;-85
2022/03/07 12:01:14;;;;;;;12.63;8.30;;;;;;;;;;5060042;28;20020;-84
2022/03/07 12:03:40;;;;;;;12.27;8.70;;;;;;;;;;5061503;28;20078;-86
2022/03/07 12:06:09;;;;;;;10.43;7.45;;;;;;;;;;5060099;28;20063;-86
2022/03/07 12:08:54;;;;;;;10.93;8.10;;;;;;;;;;5058698;28;20017;-85
2022/03/07 12:11:25;;;;;;;13.55;8.35;;;;;;;;;;5058820;28;20029;-86
2022/03/07 12:13:52;;;;;;;12.52;8.27;;;;;;;;;;5059350;28;20028;-85
2022/03/07 12:16:25;;;;;;;15.00;8.82;;;;;;;;;;5058863;28;20029;-86
2022/03/07 12:18:53;;;;;;;14.35;9.25;;;;;;;;;;5038588;28;20029;-85
2022/03/07 12:21:25;;;;;;;12.35;8.50;;;;;;;;;;5038735;28;20021;-86
2022/03/07 12:23:51;;;;;;;11.93;8.65;;;;;;;;;;5053443;28;20102;-84
2022/03/07 12:26:17;;;;;;;11.57;8.18;;;;;;;;;;5060052;28;20113;-84
2022/03/07 12:28:43;;;;;;;14.68;9.15;;;;;;;;;;5060171;28;20032;-85
2022/03/07 12:31:10;;;;;;;17.00;9.70;;;;;;;;;;5059803;28;20021;-83
2022/03/07 12:33:36;;;;;;;14.35;9.02;;;;;;;;;;5058728;28;20028;-84
2022/03/07 12:36:04;;;;;;;11.50;8.57;;;;;;;;;;5058430;28;20021;-86
2022/03/07 12:38:30;;;;;;;12.75;9.05;;;;;;;;;;5060810;28;20033;-84
2022/03/07 12:40:58;;;;;;;16.90;9.55;;;;;;;;;;5058095;28;20063;-86
2022/03/07 12:43:24;;;;;;;12.18;8.85;;;;;;;;;;5059762;28;20056;-83
2022/03/07 12:45:50;;;;;;;16.08;9.77;;;;;;;;;;5056439;28;20025;-84
2022/03/07 12:48:16;;;;;;;12.52;8.88;;;;;;;;;;5038942;28;20022;-84
2022/03/07 12:50:42;;;;;;;13.15;9.32;;;;;;;;;;5039522;28;20021;-84
2022/03/07 12:53:12;;;;;;;16.45;9.70;;;;;;;;;;5038797;28;20045;-82
2022/03/07 12:55:38;;;;;;;14.23;9.57;;;;;;;;;;5038572;28;20044;-83
2022/03/07 12:58:04;;;;;;;14.15;9.45;;;;;;;;;;5037556;28;20085;-84
2022/03/07 13:00:32;;;;;;;14.60;9.65;;;;;;;;;;5039088;28;20057;-83
2022/03/07 13:02:58;;;;;;;13.93;9.35;;;;;;;;;;5038019;28;20021;-82
2022/03/07 13:05:26;;;;;;;15.77;10.15;;;;;;;;;;5039423;28;20022;-84
2022/03/07 13:08:00;;;;;;;15.13;9.35;;;;;;;;;;5040020;28;20104;-85
2022/03/07 13:10:26;;;;;;;18.27;8.98;;;;;;;;;;5039049;28;20493;-84
2022/03/07 13:12:56;;;;;;;14.27;9.13;;;;;;;;;;5038597;28;20026;-85
2022/03/07 13:15:23;;;;;;;15.23;9.95;;;;;;;;;;5039115;28;20048;-82
2022/03/07 13:17:59;;;;;;;14.15;9.10;;;;;;;;;;5051499;28;20051;-83
2022/03/07 13:20:26;;;;;;;16.00;9.93;;;;;;;;;;5058237;28;20507;-84
2022/03/07 13:22:52;;;;;;;15.20;10.02;;;;;;;;;;5052118;28;20032;-84
2022/03/07 13:25:18;;;;;;;36.08;10.55;;;;;;;;;;5037071;28;20022;-83
2022/03/07 13:27:47;;;;;;;13.77;9.88;;;;;;;;;;5038580;28;20029;-84
2022/03/07 13:30:14;;;;;;;12.93;9.35;;;;;;;;;;5036484;28;20099;-84
2022/03/07 13:32:41;;;;;;;18.70;10.07;;;;;;;;;;5047690;28;20013;-84
2022/03/07 13:35:21;;;;;;;14.75;10.13;;;;;;;;;;5036306;28;20121;-83
2022/03/07 13:37:47;;;;;;;13.40;10.30;;;;;;;;;;5036457;28;20500;-82
2022/03/07 13:40:15;;;;;;;13.80;10.20;;;;;;;;;;5035796;28;20032;-83
2022/03/07 13:42:42;;;;;;;14.48;10.23;;;;;;;;;;5036662;28;20025;-83
2022/03/07 13:45:10;;;;;;;13.63;9.85;;;;;;;;;;5037635;28;20050;-84
2022/03/07 13:47:36;;;;;;;14.82;10.93;;;;;;;;;;5052091;28;20149;-86
2022/03/07 13:50:05;;;;;;;15.55;10.13;;;;;;;;;;5057910;28;20021;-84
2022/03/07 13:52:38;;;;;;;13.65;9.77;;;;;;;;;;5057846;28;20029;-83
2022/03/07 13:55:08;;;;;;;16.65;10.18;;;;;;;;;;5057548;28;20059;-84
2022/03/07 13:57:38;;;;;;;13.50;10.00;;;;;;;;;;5052260;28;20025;-83
2022/03/07 14:00:10;;;;;;;18.33;11.55;;;;;;;;;;5047531;28;20025;-85
2022/03/07 14:02:38;;;;;;;19.60;11.45;;;;;;;;;;5049690;28;20033;-82
2022/03/07 14:05:04;;;;;;;15.60;10.95;;;;;;;;;;5049090;28;20036;-83
2022/03/07 14:07:31;;;;;;;16.17;10.85;;;;;;;;;;5045107;28;20027;-82
2022/03/07 14:10:00;;;;;;;15.60;10.57;;;;;;;;;;5048729;28;20057;-83
2022/03/07 14:12:26;;;;;;;16.67;11.63;;;;;;;;;;5046881;28;20044;-82
2022/03/07 14:15:02;;;;;;;18.00;11.73;;;;;;;;;;5036917;28;20079;-82
2022/03/07 14:17:29;;;;;;;16.15;10.75;;;;;;;;;;5045446;28;20033;-82
2022/03/07 14:19:56;;;;;;;15.20;11.35;;;;;;;;;;5050146;28;20497;-83
2022/03/07 14:22:22;;;;;;;17.83;11.55;;;;;;;;;;5045913;28;20117;-82
2022/03/07 14:24:49;;;;;;;18.30;12.20;;;;;;;;;;5041264;28;20103;-84
2022/03/07 14:27:15;;;;;;;20.52;11.65;;;;;;;;;;5042860;28;20052;-83
2022/03/07 14:29:43;;;;;;;17.33;10.90;;;;;;;;;;5038305;28;20029;-82